createdAt,value
2023-03-29T00:02:03.578Z,2.25
2023-03-29T00:04:30.473Z,1.83
2023-03-29T00:06:57.136Z,1.60
2023-03-29T00:09:26.537Z,1.98
2023-03-29T00:11:53.367Z,1.92
2023-03-29T00:14:20.159Z,1.90
2023-03-29T00:16:47.204Z,1.90
2023-03-29T00:19:13.952Z,2.03
2023-03-29T00:21:40.855Z,2.25
2023-03-29T00:24:07.569Z,2.00
2023-03-29T00:26:34.242Z,2.17
2023-03-29T00:29:00.900Z,1.77
2023-03-29T00:31:28.555Z,2.00
2023-03-29T00:33:55.308Z,2.20
2023-03-29T00:36:23.239Z,2.10
2023-03-29T00:38:49.916Z,1.83
2023-03-29T00:41:16.609Z,2.30
2023-03-29T00:44:01.337Z,2.10
2023-03-29T00:46:30.511Z,2.40
2023-03-29T00:49:07.133Z,2.15
2023-03-29T00:51:38.161Z,2.10
2023-03-29T00:54:06.877Z,1.92
2023-03-29T00:56:38.567Z,2.22
2023-03-29T00:59:19.670Z,2.15
2023-03-29T01:01:58.542Z,2.20
2023-03-29T01:04:37.032Z,2.30
2023-03-29T01:07:18.389Z,2.28
2023-03-29T01:09:51.827Z,1.70
2023-03-29T01:12:24.086Z,1.80
2023-03-29T01:14:59.496Z,1.90
2023-03-29T01:17:26.282Z,1.92
2023-03-29T01:19:59.592Z,2.20
2023-03-29T01:22:51.664Z,2.08
2023-03-29T01:25:31.312Z,2.00
2023-03-29T01:28:02.527Z,1.80
2023-03-29T01:30:37.325Z,2.25
2023-03-29T01:33:21.028Z,2.15
2023-03-29T01:36:07.972Z,2.85
2023-03-29T01:38:45.943Z,2.17
2023-03-29T01:41:12.580Z,2.05
2023-03-29T01:44:02.052Z,2.60
2023-03-29T01:46:39.267Z,2.47
2023-03-29T01:49:22.889Z,3.20
2023-03-29T01:51:58.570Z,2.58
2023-03-29T01:54:38.932Z,2.53
2023-03-29T01:57:10.145Z,3.28
2023-03-29T01:59:41.280Z,2.40
2023-03-29T02:02:14.617Z,2.90
2023-03-29T02:04:50.008Z,2.85
2023-03-29T02:07:20.321Z,2.83
2023-03-29T02:09:49.491Z,2.40
2023-03-29T02:12:17.096Z,2.60
2023-03-29T02:14:43.906Z,2.60
2023-03-29T02:17:18.498Z,2.90
2023-03-29T02:19:50.143Z,2.72
2023-03-29T02:22:23.983Z,2.40
2023-03-29T02:24:54.864Z,2.83
2023-03-29T02:27:21.821Z,2.50
2023-03-29T02:29:48.539Z,2.20
2023-03-29T02:32:24.096Z,2.63
2023-03-29T02:34:58.635Z,2.30
2023-03-29T02:37:30.093Z,2.72
2023-03-29T02:39:58.694Z,3.67
2023-03-29T02:42:26.788Z,2.38
2023-03-29T02:44:58.859Z,3.03
2023-03-29T02:47:32.442Z,2.80
2023-03-29T02:50:00.328Z,2.95
2023-03-29T02:52:34.198Z,2.38
2023-03-29T02:55:03.164Z,2.67
2023-03-29T02:57:32.199Z,2.88
2023-03-29T02:59:59.681Z,3.03
2023-03-29T03:02:27.651Z,3.08
2023-03-29T03:04:54.473Z,2.42
2023-03-29T03:07:21.246Z,3.17
2023-03-29T03:09:48.399Z,2.70
2023-03-29T03:12:15.379Z,3.17
2023-03-29T03:14:41.958Z,2.70
2023-03-29T03:17:08.564Z,2.88
2023-03-29T03:19:36.295Z,3.05
2023-03-29T03:22:05.801Z,2.53
2023-03-29T03:24:35.456Z,3.05
2023-03-29T03:27:02.247Z,2.75
2023-03-29T03:29:29.003Z,3.05
2023-03-29T03:31:55.644Z,3.13
2023-03-29T03:34:23.006Z,2.83
2023-03-29T03:36:50.302Z,3.10
2023-03-29T03:39:17.436Z,2.97
2023-03-29T03:41:44.053Z,2.88
2023-03-29T03:44:10.654Z,2.70
2023-03-29T03:46:37.308Z,3.17
2023-03-29T03:49:04.537Z,3.45
2023-03-29T03:51:31.251Z,3.08
2023-03-29T03:53:57.908Z,3.28
2023-03-29T03:56:25.744Z,3.35
2023-03-29T03:58:52.569Z,3.20
2023-03-29T04:01:19.613Z,2.95
2023-03-29T04:03:46.447Z,2.92
2023-03-29T04:06:13.097Z,2.78
2023-03-29T04:08:42.113Z,2.80
2023-03-29T04:11:09.189Z,3.58
2023-03-29T04:13:35.837Z,3.25
2023-03-29T04:16:03.846Z,3.28
2023-03-29T04:18:30.677Z,2.65
2023-03-29T04:20:57.343Z,3.05
2023-03-29T04:23:24.033Z,3.63
2023-03-29T04:25:55.249Z,2.95
2023-03-29T04:28:21.913Z,3.17
2023-03-29T04:30:48.925Z,3.45
2023-03-29T04:33:15.939Z,3.08
2023-03-29T04:35:42.652Z,3.28
2023-03-29T04:38:10.155Z,3.45
2023-03-29T04:40:36.914Z,3.20
2023-03-29T04:43:03.750Z,3.38
2023-03-29T04:45:30.432Z,3.83
2023-03-29T04:47:59.549Z,3.17
2023-03-29T04:50:26.405Z,3.15
2023-03-29T04:52:53.071Z,3.03
2023-03-29T04:55:19.844Z,3.10
2023-03-29T04:57:46.499Z,3.35
2023-03-29T05:00:17.089Z,3.25
2023-03-29T05:02:44.720Z,3.50
2023-03-29T05:05:12.490Z,3.92
2023-03-29T05:07:40.017Z,3.15
2023-03-29T05:10:08.235Z,3.33
2023-03-29T05:12:35.122Z,3.08
2023-03-29T05:15:02.234Z,3.38
2023-03-29T05:17:29.020Z,3.20
2023-03-29T05:19:55.689Z,2.92
2023-03-29T05:22:23.397Z,3.45
2023-03-29T05:24:51.459Z,2.95
2023-03-29T05:27:18.719Z,3.08
2023-03-29T05:29:45.331Z,3.90
2023-03-29T05:32:12.119Z,3.08
2023-03-29T05:34:39.175Z,3.03
2023-03-29T05:37:06.027Z,3.22
2023-03-29T05:39:37.501Z,3.17
2023-03-29T05:42:05.004Z,3.40
2023-03-29T05:44:31.911Z,3.20
2023-03-29T05:46:58.694Z,3.15
2023-03-29T05:49:25.501Z,3.25
2023-03-29T05:51:52.263Z,3.53
2023-03-29T05:54:18.890Z,3.50
2023-03-29T05:56:45.545Z,3.22
2023-03-29T05:59:13.653Z,3.00
2023-03-29T06:01:41.702Z,3.30
2023-03-29T06:04:08.473Z,3.60
2023-03-29T06:06:36.293Z,3.47
2023-03-29T06:09:02.916Z,4.28
2023-03-29T06:11:29.669Z,3.45
2023-03-29T06:13:57.369Z,3.45
2023-03-29T06:16:24.298Z,3.60
2023-03-29T06:18:51.003Z,3.33
2023-03-29T06:21:17.713Z,3.20
2023-03-29T06:23:44.959Z,3.58
2023-03-29T06:26:12.884Z,3.55
2023-03-29T06:28:39.796Z,3.47
2023-03-29T06:31:06.752Z,3.92
2023-03-29T06:33:34.094Z,4.07
2023-03-29T06:36:00.898Z,3.00
2023-03-29T06:38:28.403Z,3.53
2023-03-29T06:41:07.168Z,3.90
2023-03-29T06:43:34.721Z,3.67
2023-03-29T06:46:02.037Z,3.20
2023-03-29T06:48:29.035Z,3.90
2023-03-29T06:50:56.004Z,4.00
2023-03-29T06:53:23.052Z,3.88
2023-03-29T06:55:52.690Z,3.80
2023-03-29T06:58:19.670Z,4.28
2023-03-29T07:00:47.381Z,3.83
2023-03-29T07:03:20.185Z,4.40
2023-03-29T07:05:47.553Z,4.60
2023-03-29T07:08:16.260Z,4.20
2023-03-29T07:10:47.318Z,4.65
2023-03-29T07:13:15.479Z,4.97
2023-03-29T07:15:43.220Z,3.92
2023-03-29T07:18:11.026Z,4.70
2023-03-29T07:20:38.795Z,4.53
2023-03-29T07:23:07.885Z,4.30
2023-03-29T07:25:34.543Z,4.47
2023-03-29T07:28:01.544Z,4.88
2023-03-29T07:30:32.189Z,4.82
2023-03-29T07:32:59.730Z,6.40
2023-03-29T07:35:27.467Z,5.05
2023-03-29T07:37:58.440Z,5.00
2023-03-29T07:40:26.009Z,4.93
2023-03-29T07:42:55.406Z,4.88
2023-03-29T07:45:26.601Z,5.00
2023-03-29T07:47:57.624Z,5.35
2023-03-29T07:50:25.028Z,5.80
2023-03-29T07:52:51.904Z,5.20
2023-03-29T07:55:18.659Z,6.10
2023-03-29T07:57:45.644Z,5.50
2023-03-29T08:00:17.341Z,5.75
2023-03-29T08:02:45.428Z,6.22
2023-03-29T08:05:13.855Z,6.38
2023-03-29T08:07:41.883Z,5.22
2023-03-29T08:10:17.466Z,6.15
2023-03-29T08:12:45.814Z,6.43
2023-03-29T08:15:13.267Z,5.53
2023-03-29T08:17:40.305Z,6.93
2023-03-29T08:20:09.885Z,6.32
2023-03-29T08:22:37.096Z,6.95
2023-03-29T08:25:04.445Z,6.82
2023-03-29T08:27:31.406Z,6.35
2023-03-29T08:29:58.066Z,6.68
2023-03-29T08:32:24.774Z,6.18
2023-03-29T08:34:51.662Z,6.30
2023-03-29T08:37:19.138Z,6.47
2023-03-29T08:39:45.911Z,7.18
2023-03-29T08:42:30.725Z,7.00
2023-03-29T08:45:00.155Z,6.47
2023-03-29T08:47:41.530Z,7.88
2023-03-29T08:50:09.963Z,7.60
2023-03-29T08:52:40.133Z,6.90
2023-03-29T08:55:13.608Z,7.57
2023-03-29T08:57:47.813Z,17.25
2023-03-29T09:00:52.032Z,7.75
2023-03-29T09:03:24.623Z,7.18
2023-03-29T09:06:21.865Z,7.57
2023-03-29T09:08:50.891Z,6.88
2023-03-29T09:11:23.666Z,7.35
2023-03-29T09:14:27.353Z,6.95
2023-03-29T09:17:17.483Z,6.72
2023-03-29T09:20:09.503Z,8.10
2023-03-29T09:25:28.525Z,7.53
2023-03-29T09:28:05.932Z,8.20
2023-03-29T09:30:39.786Z,8.40
2023-03-29T09:33:27.699Z,7.38
2023-03-29T09:36:02.705Z,8.15
2023-03-29T09:38:31.218Z,7.40
2023-03-29T09:41:20.146Z,7.53
2023-03-29T09:43:49.344Z,7.70
2023-03-29T09:46:30.185Z,7.95
2023-03-29T09:48:57.371Z,9.15
2023-03-29T09:51:29.915Z,8.80
2023-03-29T09:53:57.277Z,8.40
2023-03-29T09:56:24.070Z,10.10
2023-03-29T09:58:51.259Z,9.00
2023-03-29T10:01:18.828Z,8.98
2023-03-29T10:03:51.551Z,8.80
2023-03-29T10:06:20.147Z,8.82
2023-03-29T10:08:54.921Z,8.40
2023-03-29T10:11:33.133Z,10.05
2023-03-29T10:14:22.886Z,11.70
2023-03-29T10:16:56.447Z,10.02
2023-03-29T10:19:27.111Z,9.50
2023-03-29T10:21:55.037Z,9.10
2023-03-29T10:24:23.681Z,10.38
2023-03-29T10:26:55.828Z,9.68
2023-03-29T10:29:25.062Z,9.50
2023-03-29T10:31:52.960Z,9.75
2023-03-29T10:34:25.207Z,11.20
2023-03-29T10:36:59.714Z,9.68
2023-03-29T10:39:32.400Z,9.85
2023-03-29T10:41:59.853Z,9.77
2023-03-29T10:44:35.971Z,9.45
2023-03-29T10:47:20.627Z,10.15
2023-03-29T10:49:56.983Z,9.70
2023-03-29T10:52:24.624Z,9.48
2023-03-29T10:54:53.928Z,9.85
2023-03-29T10:58:01.619Z,9.75
2023-03-29T11:00:40.267Z,9.35
2023-03-29T11:03:25.611Z,8.48
2023-03-29T11:06:14.199Z,10.77
2023-03-29T11:08:46.575Z,10.07
2023-03-29T11:11:30.932Z,10.52
2023-03-29T11:14:13.561Z,9.77
2023-03-29T11:16:48.773Z,10.88
2023-03-29T11:19:52.820Z,10.23
2023-03-29T11:22:25.369Z,10.82
2023-03-29T11:25:06.064Z,11.60
2023-03-29T11:27:41.662Z,10.57
2023-03-29T11:30:13.476Z,10.85
2023-03-29T11:32:51.913Z,10.68
2023-03-29T11:35:39.903Z,10.93
2023-03-29T11:38:49.936Z,11.50
2023-03-29T11:41:24.498Z,9.93
2023-03-29T11:43:55.061Z,10.77
2023-03-29T11:46:27.307Z,11.40
2023-03-29T11:49:01.529Z,11.18
2023-03-29T11:51:34.190Z,10.57
2023-03-29T11:54:13.702Z,11.02
2023-03-29T11:56:59.636Z,11.18
2023-03-29T11:59:44.130Z,11.00
2023-03-29T12:02:22.441Z,10.88
2023-03-29T12:04:53.709Z,11.88
2023-03-29T12:07:32.214Z,11.85
2023-03-29T12:10:13.806Z,12.98
2023-03-29T12:12:50.695Z,13.90
2023-03-29T12:15:21.520Z,12.77
2023-03-29T12:18:27.992Z,14.03
2023-03-29T12:21:09.029Z,14.85
2023-03-29T12:23:35.891Z,14.80
2023-03-29T12:26:27.844Z,13.70
2023-03-29T12:29:22.116Z,13.85
2023-03-29T12:32:10.577Z,14.00
2023-03-29T12:34:48.919Z,13.32
2023-03-29T12:37:23.313Z,12.93
2023-03-29T12:39:51.530Z,13.00
2023-03-29T12:42:20.916Z,14.10
2023-03-29T12:44:57.233Z,13.55
2023-03-29T12:47:26.703Z,12.13
2023-03-29T12:49:58.372Z,13.30
2023-03-29T12:52:32.876Z,14.80
2023-03-29T12:55:02.790Z,13.20
2023-03-29T12:57:44.166Z,13.68
2023-03-29T13:00:51.376Z,12.88
2023-03-29T13:03:23.417Z,13.27
2023-03-29T13:06:01.047Z,11.90
2023-03-29T13:08:46.192Z,12.63
2023-03-29T13:11:40.695Z,11.48
2023-03-29T13:14:17.875Z,12.43
2023-03-29T13:16:44.561Z,11.40
2023-03-29T13:19:35.980Z,10.65
2023-03-29T13:22:34.421Z,11.43
2023-03-29T13:25:38.900Z,10.75
2023-03-29T13:28:13.978Z,10.05
2023-03-29T13:30:54.083Z,10.20
2023-03-29T13:33:31.556Z,10.18
2023-03-29T13:36:08.548Z,10.40
2023-03-29T13:38:49.960Z,9.55
2023-03-29T13:41:46.087Z,9.30
2023-03-29T13:44:22.157Z,9.43
2023-03-29T13:47:01.203Z,9.52
2023-03-29T13:49:31.781Z,9.20
2023-03-29T13:52:16.680Z,10.18
2023-03-29T13:54:53.055Z,10.02
2023-03-29T13:57:24.670Z,10.00
2023-03-29T13:59:57.646Z,9.57
2023-03-29T14:02:54.915Z,10.05
2023-03-29T14:05:44.101Z,10.85
2023-03-29T14:08:34.725Z,10.73
2023-03-29T14:11:05.070Z,10.80
2023-03-29T14:13:31.813Z,11.05
2023-03-29T14:16:10.260Z,11.77
2023-03-29T14:18:39.804Z,10.82
2023-03-29T14:21:07.376Z,12.25
2023-03-29T14:23:37.351Z,12.15
2023-03-29T14:26:18.943Z,12.80
2023-03-29T14:28:52.546Z,13.20
2023-03-29T14:31:36.670Z,13.25
2023-03-29T14:34:06.655Z,13.38
2023-03-29T14:36:34.321Z,13.55
2023-03-29T14:39:05.375Z,14.00
2023-03-29T14:41:34.739Z,14.33
2023-03-29T14:44:03.020Z,14.25
2023-03-29T14:46:30.228Z,14.75
2023-03-29T14:48:57.357Z,13.20
2023-03-29T14:51:30.213Z,13.10
2023-03-29T14:54:03.027Z,13.15
2023-03-29T14:56:32.526Z,13.80
2023-03-29T14:59:02.495Z,13.20
2023-03-29T15:01:29.305Z,11.98
2023-03-29T15:04:01.852Z,10.85
2023-03-29T15:06:29.906Z,11.63
2023-03-29T15:09:06.017Z,11.35
2023-03-29T15:11:34.380Z,10.38
2023-03-29T15:14:08.702Z,11.10
2023-03-29T15:16:40.596Z,8.82
2023-03-29T15:19:10.920Z,9.57
2023-03-29T15:21:39.047Z,9.75
2023-03-29T15:24:06.063Z,9.40
2023-03-29T15:26:35.289Z,9.02
2023-03-29T15:29:07.977Z,8.80
2023-03-29T15:31:37.885Z,7.95
2023-03-29T15:34:08.485Z,8.45
2023-03-29T15:36:43.610Z,7.97
2023-03-29T15:39:15.352Z,8.48
2023-03-29T15:41:43.297Z,8.40
2023-03-29T15:44:11.054Z,8.13
2023-03-29T15:46:37.925Z,8.07
2023-03-29T15:49:05.007Z,7.63
2023-03-29T15:51:31.998Z,6.88
2023-03-29T15:53:58.632Z,7.32
2023-03-29T15:56:26.630Z,7.47
2023-03-29T15:58:53.274Z,8.23
2023-03-29T16:01:34.257Z,7.70
2023-03-29T16:04:14.033Z,7.57
2023-03-29T16:06:41.275Z,7.28
2023-03-29T16:09:08.690Z,7.88
2023-03-29T16:11:35.568Z,6.80
2023-03-29T16:14:02.277Z,6.75
2023-03-29T16:16:28.988Z,6.22
2023-03-29T16:18:55.963Z,6.60
2023-03-29T16:21:23.081Z,6.53
2023-03-29T16:23:51.361Z,5.88
2023-03-29T16:26:18.119Z,5.32
2023-03-29T16:28:44.974Z,5.43
2023-03-29T16:31:12.999Z,5.65
2023-03-29T16:33:41.013Z,5.15
2023-03-29T16:36:08.591Z,4.72
2023-03-29T16:38:35.409Z,6.18
2023-03-29T16:41:02.583Z,5.20
2023-03-29T16:43:29.332Z,5.05
2023-03-29T16:45:56.861Z,4.88
2023-03-29T16:48:23.788Z,4.65
2023-03-29T16:50:50.676Z,4.55
2023-03-29T16:53:21.616Z,4.57
2023-03-29T16:55:48.641Z,4.43
2023-03-29T16:58:15.413Z,4.15
2023-03-29T17:00:43.393Z,4.55
2023-03-29T17:03:11.444Z,4.00
2023-03-29T17:05:41.401Z,3.80
2023-03-29T17:08:10.087Z,4.10
2023-03-29T17:10:39.643Z,3.55
2023-03-29T17:13:06.676Z,4.32
2023-03-29T17:15:33.619Z,3.83
2023-03-29T17:18:00.438Z,4.15
2023-03-29T17:20:27.200Z,4.05
2023-03-29T17:22:55.919Z,4.25
2023-03-29T17:25:22.986Z,3.72
2023-03-29T17:27:49.858Z,4.05
2023-03-29T17:30:16.581Z,3.88
2023-03-29T17:32:43.448Z,4.22
2023-03-29T17:35:10.450Z,4.32
2023-03-29T17:37:37.318Z,3.75
2023-03-29T17:40:14.125Z,3.78
2023-03-29T17:42:41.843Z,4.55
2023-03-29T17:45:10.415Z,4.22
2023-03-29T17:47:38.248Z,4.03
2023-03-29T17:50:06.165Z,3.67
2023-03-29T17:52:32.837Z,3.42
2023-03-29T17:55:00.778Z,4.00
2023-03-29T17:57:28.066Z,3.78
2023-03-29T17:59:54.789Z,5.28
2023-03-29T18:02:23.603Z,5.88
2023-03-29T18:04:50.726Z,5.25
2023-03-29T18:07:17.727Z,7.50
2023-03-29T18:09:44.491Z,5.55
2023-03-29T18:12:11.148Z,5.85
2023-03-29T18:14:37.735Z,4.55
2023-03-29T18:17:04.426Z,4.70
2023-03-29T18:19:31.293Z,4.78
2023-03-29T18:21:57.967Z,5.82
2023-03-29T18:24:24.703Z,6.25
2023-03-29T18:26:51.508Z,5.05
2023-03-29T18:29:18.194Z,5.35
2023-03-29T18:31:46.189Z,5.88
2023-03-29T18:34:12.908Z,5.68
2023-03-29T18:36:39.610Z,5.47
2023-03-29T18:39:06.402Z,4.45
2023-03-29T18:41:35.540Z,4.70
2023-03-29T18:44:02.372Z,4.72
2023-03-29T18:46:31.278Z,4.47
2023-03-29T18:48:59.585Z,4.60
2023-03-29T18:51:28.080Z,4.63
2023-03-29T18:53:55.935Z,4.35
2023-03-29T18:56:23.135Z,4.53
2023-03-29T18:58:49.984Z,4.57
2023-03-29T19:01:16.668Z,4.70
2023-03-29T19:03:43.522Z,4.38
2023-03-29T19:06:11.706Z,5.22
2023-03-29T19:08:41.597Z,5.60
2023-03-29T19:11:11.283Z,5.78
2023-03-29T19:13:38.043Z,5.75
2023-03-29T19:16:05.250Z,5.57
2023-03-29T19:18:32.287Z,5.72
2023-03-29T19:20:58.939Z,5.20
2023-03-29T19:23:28.014Z,5.68
2023-03-29T19:25:57.193Z,5.03
2023-03-29T19:28:25.032Z,5.05
2023-03-29T19:30:51.689Z,5.45
2023-03-29T19:33:18.548Z,5.60
2023-03-29T19:35:45.334Z,6.10
2023-03-29T19:38:12.362Z,4.90
2023-03-29T19:40:39.054Z,5.95
2023-03-29T19:43:05.702Z,5.30
2023-03-29T19:45:32.378Z,5.65
2023-03-29T19:48:03.013Z,5.15
2023-03-29T19:50:31.617Z,5.93
2023-03-29T19:52:58.426Z,5.85
2023-03-29T19:55:25.396Z,8.40
2023-03-29T19:57:52.310Z,7.63
2023-03-29T20:00:24.210Z,5.50
2023-03-29T20:02:52.585Z,5.05
2023-03-29T20:05:20.257Z,5.75
2023-03-29T20:07:47.031Z,4.70
2023-03-29T20:10:14.144Z,4.68
2023-03-29T20:12:40.990Z,5.80
2023-03-29T20:15:08.141Z,4.65
2023-03-29T20:17:35.613Z,5.90
2023-03-29T20:20:08.095Z,5.05
2023-03-29T20:22:34.777Z,5.63
2023-03-29T20:25:01.409Z,4.90
2023-03-29T20:27:29.306Z,5.30
2023-03-29T20:29:56.055Z,5.13
2023-03-29T20:32:23.075Z,5.38
2023-03-29T20:34:49.733Z,5.05
2023-03-29T20:37:16.380Z,5.70
2023-03-29T20:39:43.134Z,5.45
2023-03-29T20:42:09.819Z,6.00
2023-03-29T20:44:36.563Z,6.57
2023-03-29T20:47:03.720Z,6.05
2023-03-29T20:49:36.911Z,5.68
2023-03-29T20:52:10.635Z,5.60
2023-03-29T20:54:38.596Z,5.85
2023-03-29T20:57:06.658Z,5.82
2023-03-29T20:59:34.353Z,5.00
2023-03-29T21:02:01.527Z,5.53
2023-03-29T21:04:28.382Z,5.25
2023-03-29T21:06:56.146Z,5.25
2023-03-29T21:09:25.407Z,6.00
2023-03-29T21:11:52.586Z,5.80
2023-03-29T21:14:21.179Z,5.45
2023-03-29T21:16:49.208Z,5.05
2023-03-29T21:19:16.812Z,5.47
2023-03-29T21:21:44.807Z,5.18
2023-03-29T21:24:13.638Z,5.03
2023-03-29T21:26:41.548Z,5.32
2023-03-29T21:29:08.241Z,5.10
2023-03-29T21:31:35.413Z,4.88
2023-03-29T21:34:02.118Z,6.20
2023-03-29T21:36:28.986Z,5.13
2023-03-29T21:38:56.104Z,5.25
2023-03-29T21:41:22.793Z,5.30
2023-03-29T21:43:50.378Z,5.10
2023-03-29T21:46:17.040Z,4.85
2023-03-29T21:48:43.837Z,5.05
2023-03-29T21:51:10.578Z,4.75
2023-03-29T21:53:37.284Z,5.32
2023-03-29T21:56:04.574Z,4.97
2023-03-29T21:58:32.009Z,4.68
2023-03-29T22:00:58.894Z,4.68
2023-03-29T22:03:25.794Z,4.80
2023-03-29T22:05:57.692Z,4.32
2023-03-29T22:08:26.197Z,5.30
2023-03-29T22:10:55.406Z,4.82
2023-03-29T22:13:27.554Z,4.57
2023-03-29T22:15:56.117Z,4.57
2023-03-29T22:18:23.552Z,4.22
2023-03-29T22:20:50.428Z,4.80
2023-03-29T22:23:17.158Z,5.13
2023-03-29T22:25:43.811Z,4.60
2023-03-29T22:28:10.461Z,4.85
2023-03-29T22:30:37.208Z,5.00
2023-03-29T22:33:03.922Z,4.90
2023-03-29T22:35:30.642Z,4.38
2023-03-29T22:37:57.299Z,4.43
2023-03-29T22:40:23.892Z,4.50
2023-03-29T22:42:50.532Z,4.53
2023-03-29T22:45:17.316Z,4.57
2023-03-29T22:47:44.078Z,4.72
2023-03-29T22:50:11.091Z,4.68
2023-03-29T22:52:37.786Z,4.57
2023-03-29T22:55:04.780Z,4.72
2023-03-29T22:57:31.529Z,4.88
2023-03-29T22:59:58.176Z,4.60
2023-03-29T23:02:24.938Z,4.50
2023-03-29T23:04:52.058Z,5.20
2023-03-29T23:07:18.747Z,4.90
2023-03-29T23:09:45.442Z,4.60
2023-03-29T23:12:12.142Z,4.60
2023-03-29T23:14:42.458Z,4.47
2023-03-29T23:17:10.191Z,4.57
2023-03-29T23:19:37.850Z,4.30
2023-03-29T23:22:04.606Z,4.22
2023-03-29T23:24:31.703Z,4.00
2023-03-29T23:26:58.309Z,4.50
2023-03-29T23:29:26.241Z,3.63
2023-03-29T23:31:53.774Z,4.50
2023-03-29T23:34:20.460Z,3.55
2023-03-29T23:36:47.111Z,3.85
2023-03-29T23:39:14.266Z,3.95
2023-03-29T23:41:40.981Z,3.83
2023-03-29T23:44:07.851Z,4.00
2023-03-29T23:46:34.593Z,4.22
2023-03-29T23:49:01.277Z,3.58
2023-03-29T23:51:28.396Z,3.20
2023-03-29T23:53:55.951Z,4.00
2023-03-29T23:56:23.644Z,3.20
2023-03-29T23:58:50.828Z,3.28
